Time;durP1;ratioP1;P1;durP2;ratioP2;P2;SDS_P1;SDS_P2;PMS_P1;PMS_P2;Temp;Humidity;BMP_temperature;BMP_pressure;BME280_temperature;BME280_humidity;BME280_pressure;Samples;Min_cycle;Max_cycle;Signal;HPM_P1;HPM_P2
2022/07/02 00:00:36;;;;;;;6.23;2.60;;;16.90;99.90;;;;;;5013865;28;20201;-83
2022/07/02 00:03:02;;;;;;;3.10;1.80;;;16.80;99.90;;;;;;5014572;28;20261;-83
2022/07/02 00:05:31;;;;;;;5.20;2.50;;;16.80;99.90;;;;;;5016733;28;20445;-83
2022/07/02 00:07:57;;;;;;;9.47;2.43;;;16.80;99.90;;;;;;5015295;28;20455;-85
2022/07/02 00:10:23;;;;;;;2.47;2.03;;;16.70;99.90;;;;;;5015311;28;20617;-84
2022/07/02 00:12:48;;;;;;;4.70;2.70;;;16.70;99.90;;;;;;5016106;28;20273;-84
2022/07/02 00:15:15;;;;;;;4.97;2.20;;;16.60;99.90;;;;;;5015463;28;20484;-84
2022/07/02 00:17:41;;;;;;;4.83;2.60;;;16.60;99.90;;;;;;5014148;28;20189;-84
2022/07/02 00:20:07;;;;;;;3.00;2.10;;;16.50;99.90;;;;;;5015993;28;20456;-83
2022/07/02 00:22:34;;;;;;;3.90;2.17;;;16.50;99.90;;;;;;5030624;28;21026;-84
2022/07/02 00:24:59;;;;;;;6.87;2.80;;;16.50;99.90;;;;;;5015488;28;20471;-84
2022/07/02 00:27:28;;;;;;;5.07;2.90;;;16.40;99.90;;;;;;5014230;28;20961;-83
2022/07/02 00:30:03;;;;;;;3.10;2.67;;;16.40;1.00;;;;;;5013378;28;20320;-85
2022/07/02 00:32:35;;;;;;;4.43;2.30;;;16.40;1.00;;;;;;5013488;28;20855;-85
2022/07/02 00:35:07;;;;;;;4.17;2.33;;;16.30;1.00;;;;;;5014699;28;22209;-84
2022/07/02 00:37:33;;;;;;;6.37;2.60;;;16.30;1.00;;;;;;5015920;28;20827;-83
2022/07/02 00:39:58;;;;;;;4.37;2.77;;;16.30;1.00;;;;;;5013934;28;20490;-83
2022/07/02 00:42:25;;;;;;;3.73;2.50;;;16.20;1.00;;;;;;5012796;28;20433;-84
2022/07/02 00:44:51;;;;;;;3.20;2.53;;;16.10;1.00;;;;;;5015076;28;20266;-84
2022/07/02 00:47:20;;;;;;;3.50;2.70;;;16.10;1.00;;;;;;5016569;28;20511;-84
2022/07/02 00:49:46;;;;;;;6.10;2.50;;;16.10;1.00;;;;;;5014765;28;20458;-85
2022/07/02 00:52:12;;;;;;;4.43;2.83;;;16.00;1.00;;;;;;5013636;28;20436;-85
2022/07/02 00:54:38;;;;;;;16.17;3.20;;;16.00;1.00;;;;;;5013418;28;20455;-83
2022/07/02 00:57:04;;;;;;;2.53;2.20;;;15.90;1.00;;;;;;5013372;28;20685;-83
2022/07/02 00:59:31;;;;;;;3.67;2.33;;;15.90;1.00;;;;;;5014796;28;20434;-83
2022/07/02 01:01:57;;;;;;;6.47;2.70;;;15.90;1.00;;;;;;5014819;28;20448;-84
2022/07/02 01:04:29;;;;;;;3.00;2.10;;;15.80;1.00;;;;;;5012662;28;20865;-84
2022/07/02 01:06:58;;;;;;;5.73;2.40;;;15.80;1.00;;;;;;5014125;28;20424;-85
2022/07/02 01:12:10;;;;;;;3.80;2.43;;;15.70;1.00;;;;;;5018120;28;20438;-83
2022/07/02 01:14:37;;;;;;;3.00;2.30;;;15.70;1.00;;;;;;5016887;28;20547;-83
2022/07/02 01:17:02;;;;;;;4.80;2.40;;;15.70;11.30;;;;;;5017708;28;20508;-83
2022/07/02 01:19:28;;;;;;;3.60;2.30;;;15.60;42.80;;;;;;5017087;28;20537;-84
2022/07/02 01:22:18;;;;;;;4.50;2.40;;;15.60;95.20;;;;;;5016166;28;20196;-83
2022/07/02 01:24:46;;;;;;;3.20;2.53;;;15.60;99.90;;;;;;5017833;28;20210;-84
2022/07/02 01:27:12;;;;;;;8.70;3.37;;;15.50;99.90;;;;;;5015664;28;20433;-83
2022/07/02 01:29:37;;;;;;;3.60;2.50;;;15.50;99.90;;;;;;5015349;28;20438;-84
2022/07/02 01:32:04;;;;;;;4.87;2.47;;;15.50;99.90;;;;;;5017471;28;20223;-83
2022/07/02 01:34:35;;;;;;;6.33;3.47;;;15.50;99.90;;;;;;5017284;28;20246;-84
2022/07/02 01:37:00;;;;;;;4.43;2.73;;;15.50;99.90;;;;;;5018962;28;20513;-83
2022/07/02 01:39:26;;;;;;;6.77;2.50;;;15.40;99.90;;;;;;5018751;28;20800;-83
2022/07/02 01:41:52;;;;;;;2.80;2.30;;;15.50;99.90;;;;;;5019552;28;20192;-83
2022/07/02 01:44:18;;;;;;;7.33;2.67;;;15.40;99.90;;;;;;5019355;28;20732;-84
2022/07/02 01:46:44;;;;;;;7.63;3.10;;;15.40;99.90;;;;;;5014907;28;20239;-85
2022/07/02 01:49:10;;;;;;;10.40;3.17;;;15.40;99.90;;;;;;5018275;28;20189;-85
2022/07/02 01:51:36;;;;;;;4.20;2.70;;;15.40;99.90;;;;;;5019026;28;20436;-83
2022/07/02 01:54:02;;;;;;;9.07;2.93;;;15.40;99.90;;;;;;5017227;28;20466;-83
2022/07/02 01:56:31;;;;;;;4.40;2.47;;;15.40;99.90;;;;;;5017183;28;20623;-84
2022/07/02 01:58:57;;;;;;;6.93;2.40;;;15.30;99.90;;;;;;5019713;28;20448;-84
2022/07/02 02:01:22;;;;;;;5.53;3.23;;;15.30;99.90;;;;;;5014316;28;20923;-84
2022/07/02 02:03:48;;;;;;;8.73;2.67;;;15.30;99.90;;;;;;5016514;28;20231;-84
2022/07/02 02:06:13;;;;;;;4.90;2.70;;;15.30;99.90;;;;;;5019540;28;20207;-84
2022/07/02 02:08:39;;;;;;;5.83;3.10;;;15.20;99.90;;;;;;5019532;28;20185;-85
2022/07/02 02:11:05;;;;;;;6.80;3.27;;;15.20;99.90;;;;;;5016823;28;20211;-84
2022/07/02 02:13:30;;;;;;;7.40;2.80;;;15.20;99.90;;;;;;5020836;28;20270;-84
2022/07/02 02:15:56;;;;;;;4.60;2.60;;;15.20;99.90;;;;;;5015660;28;20218;-84
2022/07/02 02:18:21;;;;;;;6.73;3.07;;;15.20;1.00;;;;;;5015048;28;20236;-84
2022/07/02 02:20:47;;;;;;;8.80;3.10;;;15.20;1.00;;;;;;5014911;28;20195;-84
2022/07/02 02:23:12;;;;;;;5.23;2.83;;;15.10;1.00;;;;;;5021255;28;20201;-84
2022/07/02 02:25:38;;;;;;;7.00;2.70;;;15.10;1.00;;;;;;5016479;28;20194;-83
2022/07/02 02:28:03;;;;;;;6.10;2.93;;;15.10;1.00;;;;;;5018825;28;20207;-83
2022/07/02 02:30:29;;;;;;;13.13;3.23;;;15.10;1.00;;;;;;5018663;28;20242;-83
2022/07/02 02:32:55;;;;;;;8.93;3.33;;;15.10;1.00;;;;;;5018213;28;20197;-83
2022/07/02 02:35:21;;;;;;;9.87;3.03;;;15.00;1.00;;;;;;5014137;28;20528;-83
2022/07/02 02:37:46;;;;;;;4.77;2.23;;;15.00;1.00;;;;;;5015615;28;20176;-83
2022/07/02 02:40:12;;;;;;;6.17;2.57;;;15.00;1.00;;;;;;5016112;28;20185;-83
2022/07/02 02:42:37;;;;;;;7.00;2.60;;;15.00;1.00;;;;;;5013060;28;20657;-84
2022/07/02 02:45:03;;;;;;;5.17;2.50;;;14.90;1.00;;;;;;5015482;28;21627;-84
2022/07/02 02:47:30;;;;;;;4.30;2.43;;;14.90;1.00;;;;;;5016248;28;20197;-83
2022/07/02 02:49:55;;;;;;;16.90;3.07;;;14.90;1.00;;;;;;5016925;28;20447;-83
2022/07/02 02:52:21;;;;;;;8.93;2.43;;;14.90;1.00;;;;;;5013002;28;20443;-84
2022/07/02 02:54:46;;;;;;;4.20;2.00;;;14.80;1.00;;;;;;5015153;28;20235;-84
2022/07/02 02:57:13;;;;;;;6.97;2.50;;;14.80;1.00;;;;;;5015948;28;20600;-83
2022/07/02 02:59:38;;;;;;;4.90;2.43;;;14.80;1.00;;;;;;5017290;28;20240;-84
2022/07/02 03:02:04;;;;;;;6.90;2.90;;;14.80;1.00;;;;;;5014801;28;20443;-83
2022/07/02 03:04:30;;;;;;;10.80;2.30;;;14.70;1.00;;;;;;5014812;28;20259;-84
2022/07/02 03:06:56;;;;;;;7.17;2.47;;;14.70;1.00;;;;;;5014897;28;20934;-83
2022/07/02 03:09:21;;;;;;;5.77;2.10;;;14.70;19.00;;;;;;5018571;28;20187;-83
2022/07/02 03:11:47;;;;;;;3.03;2.07;;;14.70;29.60;;;;;;5012944;28;20621;-84
2022/07/02 03:14:12;;;;;;;7.90;2.33;;;14.70;29.50;;;;;;5015878;28;20295;-83
2022/07/02 03:16:38;;;;;;;2.90;2.00;;;14.70;27.90;;;;;;5015852;28;20212;-83
2022/07/02 03:19:03;;;;;;;13.17;2.40;;;14.70;37.70;;;;;;5015926;28;20303;-83
2022/07/02 03:21:29;;;;;;;5.57;2.20;;;14.60;56.30;;;;;;5018532;28;20679;-83
2022/07/02 03:23:54;;;;;;;3.70;2.03;;;14.60;60.60;;;;;;5014454;28;20715;-83
2022/07/02 03:26:20;;;;;;;6.70;2.17;;;14.60;71.30;;;;;;5016000;28;20194;-85
2022/07/02 03:28:46;;;;;;;6.13;2.33;;;14.60;94.00;;;;;;5019203;28;20448;-86
2022/07/02 03:31:11;;;;;;;10.83;2.30;;;14.60;86.50;;;;;;5016892;28;20186;-85
2022/07/02 03:33:38;;;;;;;5.00;2.40;;;14.60;99.90;;;;;;5017549;28;20235;-85
2022/07/02 03:36:04;;;;;;;8.33;1.97;;;14.60;99.90;;;;;;5015227;28;20212;-83
2022/07/02 03:38:29;;;;;;;3.37;2.23;;;14.60;99.90;;;;;;5014977;28;20489;-84
2022/07/02 03:40:55;;;;;;;3.40;2.10;;;14.60;99.90;;;;;;5015786;28;20444;-84
2022/07/02 03:43:20;;;;;;;3.40;2.13;;;14.60;99.90;;;;;;5018633;28;20211;-83
2022/07/02 03:45:46;;;;;;;6.70;1.90;;;14.60;99.90;;;;;;5034536;22;20715;-87
2022/07/02 03:48:12;;;;;;;3.40;2.10;;;14.60;95.60;;;;;;5001032;28;20600;-87
2022/07/02 03:50:40;;;;;;;5.23;2.00;;;14.60;90.60;;;;;;5010036;28;20893;-87
2022/07/02 03:53:06;;;;;;;6.33;2.50;;;14.60;74.60;;;;;;5000587;28;20197;-87
2022/07/02 03:55:32;;;;;;;4.70;2.40;;;14.60;54.80;;;;;;5004888;28;20478;-87
2022/07/02 03:57:57;;;;;;;2.67;2.27;;;14.60;48.10;;;;;;4991988;28;20561;-87
2022/07/02 04:00:23;;;;;;;3.10;2.33;;;14.60;31.80;;;;;;4998583;28;20192;-87
2022/07/02 04:02:48;;;;;;;4.93;2.60;;;14.60;17.00;;;;;;4992349;28;20191;-87
2022/07/02 04:05:14;;;;;;;7.83;3.63;;;14.60;13.00;;;;;;4979835;28;20259;-87
2022/07/02 04:07:40;;;;;;;12.70;2.67;;;14.60;17.00;;;;;;4995283;28;20218;-87
2022/07/02 04:10:06;;;;;;;4.53;2.40;;;14.70;10.50;;;;;;4978342;28;20198;-87
2022/07/02 04:12:32;;;;;;;3.80;2.20;;;14.70;16.60;;;;;;4994628;28;20179;-88
2022/07/02 04:14:58;;;;;;;5.07;2.50;;;14.70;24.30;;;;;;4992594;28;20473;-87
2022/07/02 04:17:23;;;;;;;8.30;2.90;;;14.70;30.90;;;;;;4993911;28;20244;-87
2022/07/02 04:19:49;;;;;;;3.27;1.90;;;14.80;45.70;;;;;;4994332;28;20432;-87
2022/07/02 04:22:15;;;;;;;5.00;2.47;;;14.80;57.40;;;;;;4974201;28;20199;-87
2022/07/02 04:24:40;;;;;;;7.00;2.60;;;14.80;89.30;;;;;;4998802;28;20176;-87
2022/07/02 04:27:06;;;;;;;5.80;2.67;;;14.80;99.90;;;;;;4994313;28;20196;-87
2022/07/02 04:29:31;;;;;;;5.43;2.50;;;14.90;99.90;;;;;;4993902;28;20192;-87
2022/07/02 04:31:57;;;;;;;5.03;2.73;;;14.90;99.90;;;;;;4976033;28;20185;-88
2022/07/02 04:34:23;;;;;;;11.13;2.53;;;15.00;99.90;;;;;;4993740;28;20537;-87
2022/07/02 04:36:48;;;;;;;4.27;2.37;;;15.00;99.90;;;;;;4990331;28;20243;-87
2022/07/02 04:39:14;;;;;;;4.93;2.83;;;15.00;99.90;;;;;;4993655;28;20192;-87
2022/07/02 04:41:39;;;;;;;4.50;2.77;;;15.10;99.90;;;;;;4990613;28;20567;-87
2022/07/02 04:44:05;;;;;;;6.80;3.03;;;15.20;99.90;;;;;;5001397;28;20184;-87
2022/07/02 04:46:30;;;;;;;6.37;3.70;;;15.20;99.90;;;;;;5005016;28;20221;-88
2022/07/02 04:48:56;;;;;;;4.20;2.37;;;15.20;90.50;;;;;;4981511;28;20204;-87
2022/07/02 04:51:21;;;;;;;2.47;2.27;;;15.30;30.80;;;;;;5001289;28;20650;-87
2022/07/02 04:53:47;;;;;;;10.40;2.97;;;15.30;1.00;;;;;;4978380;28;20217;-87
2022/07/02 04:56:13;;;;;;;2.77;2.43;;;15.40;1.00;;;;;;5002284;28;20222;-87
2022/07/02 04:58:38;;;;;;;7.50;3.40;;;15.40;1.00;;;;;;4998825;28;20445;-87
2022/07/02 05:01:04;;;;;;;4.40;2.30;;;15.50;1.00;;;;;;5002210;28;20189;-87
2022/07/02 05:03:29;;;;;;;2.17;1.87;;;15.50;1.00;;;;;;5000056;28;20195;-87
2022/07/02 05:05:55;;;;;;;7.00;2.20;;;15.60;1.00;;;;;;4989647;28;20306;-88
2022/07/02 05:08:26;;;;;;;4.57;2.07;;;15.60;1.00;;;;;;4980742;28;20187;-87
2022/07/02 05:10:52;;;;;;;7.97;2.90;;;15.70;1.00;;;;;;5002027;28;20190;-87
2022/07/02 05:13:18;;;;;;;7.23;2.30;;;15.80;1.00;;;;;;4992648;28;20445;-87
2022/07/02 05:15:45;;;;;;;4.37;2.07;;;15.90;1.00;;;;;;5008743;28;20504;-87
2022/07/02 05:18:11;;;;;;;4.10;1.97;;;16.00;1.00;;;;;;4996686;28;20182;-87
2022/07/02 05:20:36;;;;;;;5.30;2.50;;;16.10;1.00;;;;;;4996515;28;20440;-88
2022/07/02 05:23:02;;;;;;;5.83;2.47;;;16.10;99.90;;;;;;5007365;28;20465;-87
2022/07/02 05:25:27;;;;;;;4.77;2.30;;;16.20;99.90;;;;;;4987046;28;20186;-88
2022/07/02 05:27:53;;;;;;;5.73;2.40;;;16.40;99.90;;;;;;5005318;28;20644;-88
2022/07/02 05:30:18;;;;;;;5.90;2.50;;;16.40;99.90;;;;;;4996415;28;20191;-89
2022/07/02 05:32:44;;;;;;;2.30;1.70;;;16.50;99.90;;;;;;4982839;28;20555;-88
2022/07/02 05:35:10;;;;;;;5.17;2.37;;;16.60;99.90;;;;;;4994424;28;20206;-87
2022/07/02 05:37:35;;;;;;;3.33;2.20;;;16.70;99.90;;;;;;4998554;28;20176;-88
2022/07/02 05:40:01;;;;;;;8.03;2.43;;;16.80;99.90;;;;;;4976949;28;20270;-88
2022/07/02 05:42:27;;;;;;;4.20;2.33;;;16.90;99.90;;;;;;4997333;28;20202;-89
2022/07/02 05:44:52;;;;;;;3.57;1.93;;;17.00;99.90;;;;;;4994738;28;20575;-88
2022/07/02 05:47:18;;;;;;;4.27;2.10;;;17.10;99.90;;;;;;4998849;28;20489;-88
2022/07/02 05:49:43;;;;;;;4.80;2.67;;;17.10;99.90;;;;;;4995028;28;20533;-88
2022/07/02 05:52:09;;;;;;;5.47;1.83;;;17.20;99.90;;;;;;4999901;28;20208;-88
2022/07/02 05:54:34;;;;;;;8.63;2.00;;;17.30;99.90;;;;;;4996996;28;20204;-88
2022/07/02 05:57:00;;;;;;;4.40;1.47;;;17.40;99.20;;;;;;4980139;28;20313;-89
2022/07/02 05:59:28;;;;;;;6.90;1.90;;;17.50;45.20;;;;;;4995088;28;20589;-87
2022/07/02 06:01:53;;;;;;;3.80;1.83;;;17.70;1.00;;;;;;4993007;28;20189;-88
2022/07/02 06:04:19;;;;;;;3.00;1.80;;;17.80;1.00;;;;;;4994877;28;21478;-88
2022/07/02 06:09:29;;;;;;;3.13;2.00;;;18.20;1.00;;;;;;4996249;28;20196;-88
2022/07/02 06:11:54;;;;;;;6.00;1.73;;;18.50;1.00;;;;;;4974967;28;20442;-88
2022/07/02 06:14:20;;;;;;;4.47;1.60;;;19.00;1.00;;;;;;4975196;28;20204;-87
2022/07/02 06:16:45;;;;;;;3.53;1.37;;;20.20;1.00;;;;;;4994993;28;20247;-88
2022/07/02 06:19:11;;;;;;;5.83;1.37;;;23.00;99.90;;;;;;4982267;28;20211;-89
2022/07/02 06:21:36;;;;;;;2.30;1.20;;;27.90;99.90;;;;;;4996326;28;20191;-90
2022/07/02 06:24:02;;;;;;;3.93;1.10;;;32.30;99.90;;;;;;4995983;28;20199;-89
2022/07/02 06:26:28;;;;;;;4.07;1.10;;;35.60;99.90;;;;;;4995433;28;20207;-89
2022/07/02 06:28:53;;;;;;;2.67;0.87;;;38.30;99.90;;;;;;4997229;28;20473;-90
2022/07/02 06:31:19;;;;;;;2.70;0.87;;;40.80;99.90;;;;;;4997843;28;20348;-90
2022/07/02 06:33:44;;;;;;;2.97;0.87;;;43.10;99.90;;;;;;4993814;28;20581;-89
2022/07/02 06:36:14;;;;;;;3.10;1.10;;;45.10;99.90;;;;;;4994775;28;20230;-89
2022/07/02 06:38:40;;;;;;;3.67;1.13;;;46.70;99.90;;;;;;4996577;28;20274;-91
2022/07/02 06:43:50;;;;;;;1.80;0.90;;;49.10;99.90;;;;;;4992962;28;20949;-90
2022/07/02 06:46:16;;;;;;;5.03;1.07;;;50.10;99.90;;;;;;4982885;28;20465;-91
2022/07/02 06:48:41;;;;;;;1.97;1.00;;;51.10;99.90;;;;;;4986359;28;20237;-90
2022/07/02 06:51:06;;;;;;;1.00;0.70;;;51.60;99.90;;;;;;4994709;28;20258;-91
2022/07/02 06:53:32;;;;;;;2.37;1.07;;;52.00;99.90;;;;;;4993812;28;20205;-91
2022/07/02 06:55:58;;;;;;;4.60;1.00;;;51.00;94.60;;;;;;5002532;28;20308;-91
2022/07/02 06:58:24;;;;;;;1.60;0.90;;;51.00;90.70;;;;;;4990852;28;20211;-90
2022/07/02 07:00:49;;;;;;;3.87;1.03;;;52.30;89.20;;;;;;5005151;28;20186;-91
2022/07/02 07:03:15;;;;;;;2.10;0.90;;;53.00;83.00;;;;;;4995207;28;20258;-91
2022/07/02 07:05:45;;;;;;;1.73;0.93;;;53.60;77.90;;;;;;5000203;28;20843;-89
2022/07/02 07:08:11;;;;;;;1.67;0.80;;;53.60;71.50;;;;;;4998017;28;20179;-90
2022/07/02 07:10:36;;;;;;;2.05;0.70;;;54.10;66.80;;;;;;4981867;28;20239;-91
2022/07/02 07:13:02;;;;;;;1.65;0.93;;;55.20;64.90;;;;;;5001989;28;20183;-91
2022/07/02 07:15:27;;;;;;;6.60;0.90;;;56.10;64.70;;;;;;4992412;28;20183;-90
2022/07/02 07:17:54;;;;;;;1.65;0.73;;;56.60;78.50;;;;;;4994203;28;21140;-88
2022/07/02 07:20:26;;;;;;;1.77;0.80;;;57.00;58.50;;;;;;4999024;28;20566;-87
2022/07/02 07:22:52;;;;;;;1.23;0.70;;;57.20;72.60;;;;;;5000583;28;20277;-88
2022/07/02 07:25:18;;;;;;;4.20;0.88;;;57.40;53.80;;;;;;4989902;28;20726;-89
2022/07/02 07:27:44;;;;;;;1.85;0.80;;;57.70;51.70;;;;;;5003386;28;20179;-88
2022/07/02 07:30:10;;;;;;;3.03;0.93;;;58.00;49.50;;;;;;4989590;28;20541;-88
2022/07/02 07:32:36;;;;;;;1.65;0.90;;;58.00;47.70;;;;;;5001784;28;20188;-88
2022/07/02 07:35:01;;;;;;;2.35;0.93;;;58.00;45.70;;;;;;4989645;28;20588;-88
2022/07/02 07:37:27;;;;;;;1.90;1.00;;;58.10;44.40;;;;;;5001798;28;20591;-87
2022/07/02 07:39:52;;;;;;;6.40;1.20;;;58.20;43.00;;;;;;4997230;28;20182;-88
2022/07/02 07:42:18;;;;;;;2.65;1.27;;;58.30;42.10;;;;;;4999084;28;20187;-88
2022/07/02 07:44:44;;;;;;;1.77;0.90;;;58.20;40.40;;;;;;4995984;28;20189;-88
2022/07/02 07:47:09;;;;;;;3.15;1.00;;;58.30;39.50;;;;;;5001288;28;20264;-88
2022/07/02 07:49:35;;;;;;;1.33;0.88;;;58.40;39.10;;;;;;4994127;28;20178;-89
2022/07/02 07:52:00;;;;;;;3.88;0.90;;;58.60;38.30;;;;;;4996240;28;20186;-89
2022/07/02 07:54:26;;;;;;;2.47;0.90;;;58.70;36.70;;;;;;4997327;28;20186;-89
2022/07/02 07:56:51;;;;;;;4.93;1.00;;;58.30;34.70;;;;;;4997711;28;20214;-88
2022/07/02 07:59:17;;;;;;;1.92;0.80;;;58.30;33.60;;;;;;5002701;28;20190;-89
2022/07/02 08:01:42;;;;;;;1.85;0.82;;;58.20;33.10;;;;;;4992560;28;20190;-89
2022/07/02 08:04:08;;;;;;;1.92;1.00;;;58.30;31.00;;;;;;4997843;28;20236;-88
2022/07/02 08:06:33;;;;;;;2.65;1.05;;;58.10;30.00;;;;;;4994632;28;20223;-86
2022/07/02 08:08:59;;;;;;;2.60;0.90;;;58.00;29.60;;;;;;4997862;28;20175;-86
2022/07/02 08:11:26;;;;;;;1.77;0.82;;;58.10;28.90;;;;;;4998450;28;20221;-86
2022/07/02 08:13:51;;;;;;;1.52;1.00;;;58.20;28.30;;;;;;4978123;28;20296;-86
2022/07/02 08:16:17;;;;;;;3.42;1.08;;;58.10;27.40;;;;;;4981862;28;20284;-87
2022/07/02 08:18:42;;;;;;;3.55;0.85;;;58.10;27.10;;;;;;4997840;28;20179;-87
2022/07/02 08:21:08;;;;;;;4.57;1.02;;;57.90;26.10;;;;;;5004879;28;20322;-88
2022/07/02 08:23:34;;;;;;;1.75;0.82;;;57.80;26.20;;;;;;4996948;28;20191;-86
2022/07/02 08:25:59;;;;;;;3.40;1.00;;;57.80;25.20;;;;;;4982284;28;20620;-88
2022/07/02 08:28:25;;;;;;;2.10;0.73;;;57.70;24.70;;;;;;4995831;28;20187;-85
2022/07/02 08:30:51;;;;;;;2.28;0.90;;;57.70;24.10;;;;;;4996514;28;20187;-86
2022/07/02 08:33:17;;;;;;;2.50;1.00;;;57.30;23.00;;;;;;4978651;28;20194;-86
2022/07/02 08:35:43;;;;;;;1.33;0.85;;;56.30;21.30;;;;;;4996747;28;20206;-86
2022/07/02 08:38:08;;;;;;;2.57;1.10;;;55.80;20.10;;;;;;4992676;28;20187;-86
2022/07/02 08:40:34;;;;;;;2.50;0.90;;;54.30;17.70;;;;;;4997695;28;20245;-82
2022/07/02 08:43:00;;;;;;;1.73;0.80;;;55.00;19.00;;;;;;4994392;28;20194;-83
2022/07/02 08:45:30;;;;;;;5.83;1.50;;;53.60;16.60;;;;;;4993810;28;20214;-83
2022/07/02 08:47:57;;;;;;;14.73;4.07;;;50.00;10.70;;;;;;5003219;28;20197;-83
2022/07/02 08:50:23;;;;;;;1.63;0.70;;;50.90;13.90;;;;;;5007554;28;20448;-83
2022/07/02 08:52:53;;;;;;;1.20;0.60;;;51.90;15.40;;;;;;5011105;28;20873;-83
2022/07/02 08:55:19;;;;;;;1.83;0.67;;;52.30;15.90;;;;;;4994320;28;20525;-83
2022/07/02 08:57:47;;;;;;;2.50;1.07;;;52.20;16.10;;;;;;4994889;28;20440;-82
2022/07/02 09:00:13;;;;;;;3.20;0.60;;;51.70;15.00;;;;;;5001051;28;20424;-82
2022/07/02 09:02:40;;;;;;;1.50;0.83;;;50.20;11.70;;;;;;4996312;28;20976;-82
2022/07/02 09:05:07;;;;;;;1.90;0.80;;;51.40;14.50;;;;;;4990853;28;20536;-81
2022/07/02 09:07:35;;;;;;;1.53;0.70;;;52.60;16.60;;;;;;5004112;28;20461;-82
2022/07/02 09:10:01;;;;;;;1.83;0.80;;;53.40;18.10;;;;;;5004542;28;21019;-81
2022/07/02 09:12:28;;;;;;;3.10;1.10;;;54.00;17.60;;;;;;5006143;28;20416;-82
2022/07/02 09:14:53;;;;;;;2.73;0.90;;;54.30;17.80;;;;;;5000480;28;20178;-82
2022/07/02 09:17:19;;;;;;;1.43;0.73;;;54.40;17.80;;;;;;4997889;28;20214;-82
2022/07/02 09:19:44;;;;;;;1.60;0.67;;;53.90;15.60;;;;;;5003625;28;20729;-84
2022/07/02 09:22:10;;;;;;;1.80;0.70;;;54.30;16.00;;;;;;4999835;28;20183;-83
2022/07/02 09:24:39;;;;;;;5.80;1.00;;;52.20;12.20;;;;;;4995682;28;20267;-83
2022/07/02 09:27:13;;;;;;;2.43;0.80;;;52.70;12.70;;;;;;5003700;28;20210;-83
2022/07/02 09:29:50;;;;;;;2.30;0.70;;;52.80;12.80;;;;;;5002018;28;20433;-83
2022/07/02 09:32:16;;;;;;;1.10;0.50;;;52.70;11.70;;;;;;4987824;28;20405;-84
2022/07/02 09:34:50;;;;;;;2.03;0.70;;;52.70;11.70;;;;;;4997055;28;20436;-85
2022/07/02 09:37:18;;;;;;;3.70;1.00;;;52.70;11.50;;;;;;5004085;28;20449;-84
2022/07/02 09:39:44;;;;;;;1.53;0.83;;;52.80;11.30;;;;;;5000182;28;20454;-84
2022/07/02 09:42:11;;;;;;;1.97;0.80;;;52.80;10.90;;;;;;5005702;28;20440;-83
2022/07/02 09:44:47;;;;;;;1.83;0.70;;;52.70;10.50;;;;;;4995432;28;20482;-83
2022/07/02 09:47:13;;;;;;;3.20;0.80;;;51.60;8.40;;;;;;5034988;22;20567;-77
2022/07/02 09:49:50;;;;;;;2.70;0.70;;;51.10;7.10;;;;;;5013828;28;20458;-80
2022/07/02 09:52:17;;;;;;;2.43;0.80;;;50.60;6.80;;;;;;5020911;28;20587;-80
2022/07/02 09:54:43;;;;;;;1.00;0.63;;;50.30;5.80;;;;;;5034240;28;20441;-80
2022/07/02 09:57:11;;;;;;;1.97;0.67;;;49.90;4.80;;;;;;5020198;28;20477;-81
2022/07/02 09:59:38;;;;;;;2.53;0.80;;;48.00;2.40;;;;;;5013147;28;20454;-83
2022/07/02 10:02:04;;;;;;;2.07;0.60;;;47.70;11.90;;;;;;5003618;28;20962;-81
2022/07/02 10:04:31;;;;;;;1.97;0.80;;;47.80;2.90;;;;;;5004868;28;20438;-82
2022/07/02 10:06:59;;;;;;;2.30;0.60;;;48.00;3.00;;;;;;4999628;28;20470;-82
2022/07/02 10:09:25;;;;;;;2.23;0.70;;;48.60;4.80;;;;;;4999574;28;20441;-82
2022/07/02 10:11:51;;;;;;;1.00;0.60;;;48.80;5.10;;;;;;4997027;28;20438;-82
2022/07/02 10:14:19;;;;;;;3.33;0.70;;;48.50;4.40;;;;;;5002779;28;20516;-82
2022/07/02 10:16:46;;;;;;;1.20;0.70;;;48.50;4.80;;;;;;5000963;28;20203;-82
2022/07/02 10:19:14;;;;;;;1.80;0.50;;;48.60;5.30;;;;;;4996903;28;20438;-82
2022/07/02 10:21:40;;;;;;;0.90;0.60;;;48.70;5.60;;;;;;4996909;28;20446;-82
2022/07/02 10:24:09;;;;;;;3.13;0.77;;;48.80;6.40;;;;;;4998741;28;20441;-82
2022/07/02 10:26:34;;;;;;;1.70;0.80;;;48.90;5.70;;;;;;4997185;28;20226;-83
2022/07/02 10:29:04;;;;;;;1.63;0.90;;;49.00;6.30;;;;;;5003952;28;20518;-82
2022/07/02 10:31:36;;;;;;;4.20;0.80;;;48.60;5.30;;;;;;4997946;28;20186;-84
2022/07/02 10:34:25;;;;;;;1.27;0.67;;;48.60;4.80;;;;;;5004216;28;20414;-82
2022/07/02 10:36:51;;;;;;;2.23;1.17;;;48.60;5.10;;;;;;4993018;28;20470;-82
2022/07/02 10:39:19;;;;;;;1.60;0.70;;;48.50;4.00;;;;;;4989577;28;20481;-82
2022/07/02 10:41:44;;;;;;;1.20;0.60;;;48.20;3.50;;;;;;4991737;28;20442;-82
2022/07/02 10:44:10;;;;;;;1.27;0.70;;;48.20;4.50;;;;;;4977513;28;21000;-82
2022/07/02 10:46:36;;;;;;;2.27;0.50;;;48.00;3.50;;;;;;5004402;28;20228;-82
2022/07/02 10:49:04;;;;;;;1.43;0.80;;;48.10;4.40;;;;;;5010870;28;21606;-83
2022/07/02 10:51:34;;;;;;;1.37;0.70;;;48.00;3.60;;;;;;4993873;28;20501;-82
2022/07/02 10:54:05;;;;;;;2.70;0.90;;;48.00;3.90;;;;;;5005746;28;20426;-82
2022/07/02 10:56:43;;;;;;;1.37;0.60;;;47.80;3.50;;;;;;4999662;28;20462;-82
2022/07/02 10:59:24;;;;;;;1.50;0.60;;;46.20;1.00;;;;;;5001083;28;20430;-82
2022/07/02 11:02:09;;;;;;;1.40;0.60;;;46.10;1.00;;;;;;5016996;28;20467;-82
2022/07/02 11:04:36;;;;;;;3.13;0.60;;;45.90;1.10;;;;;;5010753;28;20489;-82
2022/07/02 11:07:05;;;;;;;3.80;0.70;;;46.30;2.00;;;;;;5010795;28;20501;-84
2022/07/02 11:09:31;;;;;;;2.27;0.70;;;46.30;2.90;;;;;;5002720;28;20927;-82
2022/07/02 11:12:02;;;;;;;3.03;0.90;;;46.40;2.80;;;;;;4992622;28;20446;-82
2022/07/02 11:14:31;;;;;;;1.10;0.70;;;46.50;2.30;;;;;;4994398;28;20419;-84
2022/07/02 11:16:56;;;;;;;5.80;1.00;;;46.40;2.30;;;;;;4997635;28;20458;-83
2022/07/02 11:19:24;;;;;;;2.23;0.77;;;45.20;1.10;;;;;;4992087;28;20478;-84
2022/07/02 11:21:53;;;;;;;1.30;0.80;;;44.00;1.00;;;;;;5000366;28;20194;-82
2022/07/02 11:24:24;;;;;;;1.50;0.67;;;43.50;9.20;;;;;;5000737;28;20434;-82
2022/07/02 11:26:50;;;;;;;1.90;0.80;;;43.70;1.00;;;;;;5002453;28;20477;-83
2022/07/02 11:29:16;;;;;;;2.03;0.60;;;44.20;1.30;;;;;;5002283;28;20594;-84
2022/07/02 11:31:45;;;;;;;2.10;0.63;;;44.60;2.10;;;;;;4995226;28;20471;-82
2022/07/02 11:34:13;;;;;;;2.30;0.77;;;44.90;2.70;;;;;;4999679;28;20195;-82
2022/07/02 11:36:39;;;;;;;2.33;0.80;;;45.20;3.60;;;;;;4995986;28;20458;-84
2022/07/02 11:39:16;;;;;;;2.30;0.80;;;45.50;4.10;;;;;;5005844;28;20434;-82
2022/07/02 11:41:44;;;;;;;3.77;0.80;;;45.60;3.80;;;;;;4988104;28;20207;-84
2022/07/02 11:44:22;;;;;;;2.10;0.70;;;44.90;3.00;;;;;;4999821;28;20456;-82
2022/07/02 11:46:59;;;;;;;3.93;0.80;;;45.00;3.30;;;;;;5003728;28;20476;-84
2022/07/02 11:49:31;;;;;;;1.77;0.70;;;44.50;3.00;;;;;;4996043;28;20478;-84
2022/07/02 11:51:57;;;;;;;4.00;0.73;;;44.60;2.40;;;;;;4993159;28;20443;-83
2022/07/02 11:54:23;;;;;;;3.33;0.80;;;43.60;1.00;;;;;;5001977;28;20453;-83
2022/07/02 11:56:52;;;;;;;1.30;0.70;;;42.50;1.00;;;;;;5001060;28;20458;-84
2022/07/02 11:59:20;;;;;;;2.73;0.80;;;42.60;1.00;;;;;;5001467;28;20453;-83
2022/07/02 12:01:50;;;;;;;3.70;1.10;;;41.30;1.00;;;;;;4993586;28;20952;-86
2022/07/02 12:04:17;;;;;;;1.47;0.60;;;41.30;1.00;;;;;;4989759;28;20470;-83
2022/07/02 12:06:48;;;;;;;2.23;0.70;;;41.40;1.00;;;;;;4997722;28;20470;-83
2022/07/02 12:09:19;;;;;;;1.50;0.60;;;40.90;1.00;;;;;;4996466;28;20517;-85
2022/07/02 12:11:47;;;;;;;3.20;0.80;;;39.80;1.00;;;;;;4995910;28;20442;-84
2022/07/02 12:14:14;;;;;;;3.30;0.60;;;40.40;1.30;;;;;;4995593;28;20981;-83
2022/07/02 12:16:42;;;;;;;1.70;0.70;;;41.10;3.40;;;;;;4999573;28;21027;-84
2022/07/02 12:19:10;;;;;;;1.93;0.70;;;41.40;3.70;;;;;;4996572;28;20433;-84
2022/07/02 12:21:48;;;;;;;2.13;0.70;;;41.10;3.60;;;;;;5000687;28;20488;-84
2022/07/02 12:24:21;;;;;;;1.53;0.60;;;40.50;2.70;;;;;;4985407;28;20731;-84
2022/07/02 12:26:56;;;;;;;2.77;0.80;;;40.40;2.20;;;;;;4999958;28;20474;-86
2022/07/02 12:32:11;;;;;;;1.40;0.60;;;39.30;1.00;;;;;;4987668;28;20433;-84
2022/07/02 12:34:48;;;;;;;2.33;0.70;;;39.80;2.20;;;;;;4997763;28;20430;-86
2022/07/02 12:37:23;;;;;;;2.07;0.67;;;40.40;4.00;;;;;;5000375;28;20457;-85
2022/07/02 12:39:49;;;;;;;3.73;0.80;;;40.40;4.00;;;;;;4991060;28;20522;-82
2022/07/02 12:42:20;;;;;;;1.20;0.60;;;39.50;2.50;;;;;;4995720;28;20427;-82
2022/07/02 12:44:54;;;;;;;4.10;0.80;;;39.00;2.10;;;;;;4997477;28;20426;-82
2022/07/02 12:47:33;;;;;;;2.03;0.90;;;38.60;1.60;;;;;;4992960;28;20478;-83
2022/07/02 12:50:13;;;;;;;1.60;0.70;;;38.60;2.20;;;;;;4992095;28;20793;-83
2022/07/02 12:52:53;;;;;;;1.50;0.70;;;38.90;2.70;;;;;;4995974;28;20434;-84
2022/07/02 12:55:33;;;;;;;3.73;0.77;;;39.00;2.80;;;;;;4990820;28;20454;-84
2022/07/02 12:58:04;;;;;;;1.10;0.73;;;39.20;3.50;;;;;;4991132;28;20870;-84
2022/07/02 13:00:31;;;;;;;3.13;1.00;;;39.20;3.70;;;;;;5006916;28;20446;-84